sensor_id;sensor_type;location;lat;lon;timestamp;temperature;humidity
16479;DHT22;8350;52.316;10.530;2024-01-27T00:02:30;5.10;99.90
16479;DHT22;8350;52.316;10.530;2024-01-27T00:05:33;5.10;99.90
16479;DHT22;8350;52.316;10.530;2024-01-27T00:08:01;5.10;99.90
16479;DHT22;8350;52.316;10.530;2024-01-27T00:10:35;5.10;99.90
16479;DHT22;8350;52.316;10.530;2024-01-27T00:13:04;5.10;99.90
16479;DHT22;8350;52.316;10.530;2024-01-27T00:15:35;5.20;99.90
16479;DHT22;8350;52.316;10.530;2024-01-27T00:29:22;5.20;99.90
16479;DHT22;8350;52.316;10.530;2024-01-27T00:31:56;5.20;99.90
16479;DHT22;8350;52.316;10.530;2024-01-27T00:34:31;5.20;99.90
16479;DHT22;8350;52.316;10.530;2024-01-27T00:40:25;5.10;99.90
16479;DHT22;8350;52.316;10.530;2024-01-27T00:43:05;5.10;99.90
16479;DHT22;8350;52.316;10.530;2024-01-27T00:49:27;5.20;99.90
16479;DHT22;8350;52.316;10.530;2024-01-27T00:52:15;5.20;99.90
16479;DHT22;8350;52.316;10.530;2024-01-27T00:54:54;5.20;99.90
16479;DHT22;8350;52.316;10.530;2024-01-27T00:57:44;5.20;99.90
16479;DHT22;8350;52.316;10.530;2024-01-27T01:04:06;5.10;99.90
16479;DHT22;8350;52.316;10.530;2024-01-27T01:12:57;5.10;99.90
16479;DHT22;8350;52.316;10.530;2024-01-27T01:15:36;5.10;99.90
16479;DHT22;8350;52.316;10.530;2024-01-27T01:21:27;5.00;99.90
16479;DHT22;8350;52.316;10.530;2024-01-27T01:41:15;4.80;99.90
16479;DHT22;8350;52.316;10.530;2024-01-27T01:57:12;4.60;99.90
16479;DHT22;8350;52.316;10.530;2024-01-27T01:59:39;4.70;99.90
16479;DHT22;8350;52.316;10.530;2024-01-27T02:12:04;4.80;99.90
16479;DHT22;8350;52.316;10.530;2024-01-27T02:27:56;5.00;99.90
16479;DHT22;8350;52.316;10.530;2024-01-27T02:30:28;5.10;99.90
16479;DHT22;8350;52.316;10.530;2024-01-27T02:33:05;5.10;99.90
16479;DHT22;8350;52.316;10.530;2024-01-27T02:35:37;5.10;99.90
16479;DHT22;8350;52.316;10.530;2024-01-27T02:41:30;5.20;99.90
16479;DHT22;8350;52.316;10.530;2024-01-27T02:44:53;5.20;99.90
16479;DHT22;8350;52.316;10.530;2024-01-27T02:57:41;5.10;99.90
16479;DHT22;8350;52.316;10.530;2024-01-27T03:00:35;5.10;99.90
16479;DHT22;8350;52.316;10.530;2024-01-27T03:03:06;5.10;99.90
16479;DHT22;8350;52.316;10.530;2024-01-27T03:06:08;5.10;99.90
16479;DHT22;8350;52.316;10.530;2024-01-27T03:09:09;5.00;99.90
16479;DHT22;8350;52.316;10.530;2024-01-27T03:11:56;5.00;99.90
16479;DHT22;8350;52.316;10.530;2024-01-27T03:14:37;5.00;99.90
16479;DHT22;8350;52.316;10.530;2024-01-27T03:21:02;4.90;99.90
16479;DHT22;8350;52.316;10.530;2024-01-27T03:30:17;4.80;99.90
16479;DHT22;8350;52.316;10.530;2024-01-27T03:46:23;4.70;99.90
16479;DHT22;8350;52.316;10.530;2024-01-27T03:49:06;4.60;99.90
16479;DHT22;8350;52.316;10.530;2024-01-27T03:51:50;4.60;99.90
16479;DHT22;8350;52.316;10.530;2024-01-27T03:54:17;4.60;99.90
16479;DHT22;8350;52.316;10.530;2024-01-27T03:56:44;4.60;99.90
16479;DHT22;8350;52.316;10.530;2024-01-27T03:59:14;4.50;99.90
16479;DHT22;8350;52.316;10.530;2024-01-27T04:01:43;4.50;99.90
16479;DHT22;8350;52.316;10.530;2024-01-27T04:04:10;4.40;99.90
16479;DHT22;8350;52.316;10.530;2024-01-27T04:06:39;4.40;99.90
16479;DHT22;8350;52.316;10.530;2024-01-27T04:09:07;4.30;99.90
16479;DHT22;8350;52.316;10.530;2024-01-27T04:11:34;4.20;99.90
16479;DHT22;8350;52.316;10.530;2024-01-27T04:14:07;4.20;99.90
16479;DHT22;8350;52.316;10.530;2024-01-27T04:16:38;4.20;99.90
16479;DHT22;8350;52.316;10.530;2024-01-27T04:19:06;4.20;99.90
16479;DHT22;8350;52.316;10.530;2024-01-27T04:21:35;4.10;99.90
16479;DHT22;8350;52.316;10.530;2024-01-27T04:24:05;4.00;99.90
16479;DHT22;8350;52.316;10.530;2024-01-27T04:26:35;4.00;99.90
16479;DHT22;8350;52.316;10.530;2024-01-27T04:29:06;3.90;99.90
16479;DHT22;8350;52.316;10.530;2024-01-27T04:31:33;4.00;99.90
16479;DHT22;8350;52.316;10.530;2024-01-27T04:34:00;4.00;99.90
16479;DHT22;8350;52.316;10.530;2024-01-27T04:36:44;3.90;99.90
16479;DHT22;8350;52.316;10.530;2024-01-27T04:39:12;3.90;99.90
16479;DHT22;8350;52.316;10.530;2024-01-27T04:41:41;3.80;99.90
16479;DHT22;8350;52.316;10.530;2024-01-27T04:44:09;3.80;99.90
16479;DHT22;8350;52.316;10.530;2024-01-27T04:46:37;3.80;99.90
16479;DHT22;8350;52.316;10.530;2024-01-27T04:49:04;3.70;99.90
16479;DHT22;8350;52.316;10.530;2024-01-27T04:51:31;3.70;99.90
16479;DHT22;8350;52.316;10.530;2024-01-27T04:54:00;3.70;99.90
16479;DHT22;8350;52.316;10.530;2024-01-27T04:56:26;3.70;99.90
16479;DHT22;8350;52.316;10.530;2024-01-27T04:58:53;3.70;99.90
16479;DHT22;8350;52.316;10.530;2024-01-27T05:01:20;3.60;99.90
16479;DHT22;8350;52.316;10.530;2024-01-27T05:03:50;3.60;99.90
16479;DHT22;8350;52.316;10.530;2024-01-27T05:06:16;3.60;99.90
16479;DHT22;8350;52.316;10.530;2024-01-27T05:08:45;3.50;99.90
16479;DHT22;8350;52.316;10.530;2024-01-27T05:11:13;3.50;99.90
16479;DHT22;8350;52.316;10.530;2024-01-27T05:13:42;3.50;99.90
16479;DHT22;8350;52.316;10.530;2024-01-27T05:16:10;3.50;99.90
16479;DHT22;8350;52.316;10.530;2024-01-27T05:18:37;3.50;99.90
16479;DHT22;8350;52.316;10.530;2024-01-27T05:21:12;3.50;99.90
16479;DHT22;8350;52.316;10.530;2024-01-27T05:23:39;3.40;99.90
16479;DHT22;8350;52.316;10.530;2024-01-27T05:26:06;3.50;99.90
16479;DHT22;8350;52.316;10.530;2024-01-27T05:28:35;3.40;99.90
16479;DHT22;8350;52.316;10.530;2024-01-27T05:31:03;3.30;99.90
16479;DHT22;8350;52.316;10.530;2024-01-27T05:33:31;3.30;99.90
16479;DHT22;8350;52.316;10.530;2024-01-27T05:36:01;3.20;99.90
16479;DHT22;8350;52.316;10.530;2024-01-27T05:38:28;3.10;99.90
16479;DHT22;8350;52.316;10.530;2024-01-27T05:41:02;3.10;99.90
16479;DHT22;8350;52.316;10.530;2024-01-27T05:43:32;3.10;99.90
16479;DHT22;8350;52.316;10.530;2024-01-27T05:46:03;3.10;99.90
16479;DHT22;8350;52.316;10.530;2024-01-27T05:48:30;3.00;99.90
16479;DHT22;8350;52.316;10.530;2024-01-27T05:51:00;3.00;99.90
16479;DHT22;8350;52.316;10.530;2024-01-27T05:53:28;3.00;99.90
16479;DHT22;8350;52.316;10.530;2024-01-27T05:55:55;3.00;99.90
16479;DHT22;8350;52.316;10.530;2024-01-27T05:58:22;3.00;99.90
16479;DHT22;8350;52.316;10.530;2024-01-27T06:00:49;2.90;99.90
16479;DHT22;8350;52.316;10.530;2024-01-27T06:03:18;2.90;99.90
16479;DHT22;8350;52.316;10.530;2024-01-27T06:05:44;2.80;99.90
16479;DHT22;8350;52.316;10.530;2024-01-27T06:08:12;2.80;99.90
16479;DHT22;8350;52.316;10.530;2024-01-27T06:10:38;2.80;99.90
16479;DHT22;8350;52.316;10.530;2024-01-27T06:13:05;2.80;99.90
16479;DHT22;8350;52.316;10.530;2024-01-27T06:15:33;2.80;99.90
16479;DHT22;8350;52.316;10.530;2024-01-27T06:18:00;2.80;99.90
16479;DHT22;8350;52.316;10.530;2024-01-27T06:20:31;2.80;99.90
16479;DHT22;8350;52.316;10.530;2024-01-27T06:22:58;2.80;99.90
16479;DHT22;8350;52.316;10.530;2024-01-27T06:25:25;2.80;99.90
16479;DHT22;8350;52.316;10.530;2024-01-27T06:27:51;2.80;99.90
16479;DHT22;8350;52.316;10.530;2024-01-27T06:30:20;2.70;99.90
16479;DHT22;8350;52.316;10.530;2024-01-27T06:32:47;2.70;99.90
16479;DHT22;8350;52.316;10.530;2024-01-27T06:35:14;2.70;99.90
16479;DHT22;8350;52.316;10.530;2024-01-27T06:37:43;2.70;99.90
16479;DHT22;8350;52.316;10.530;2024-01-27T06:40:13;2.70;99.90
16479;DHT22;8350;52.316;10.530;2024-01-27T06:42:41;2.70;99.90
16479;DHT22;8350;52.316;10.530;2024-01-27T06:45:10;2.70;99.90
16479;DHT22;8350;52.316;10.530;2024-01-27T06:47:39;2.70;99.90
16479;DHT22;8350;52.316;10.530;2024-01-27T06:50:07;2.70;99.90
16479;DHT22;8350;52.316;10.530;2024-01-27T06:52:34;2.70;99.90
16479;DHT22;8350;52.316;10.530;2024-01-27T06:55:02;2.70;99.90
16479;DHT22;8350;52.316;10.530;2024-01-27T06:57:30;2.60;99.90
16479;DHT22;8350;52.316;10.530;2024-01-27T06:59:58;2.60;99.90
16479;DHT22;8350;52.316;10.530;2024-01-27T07:02:27;2.60;99.90
16479;DHT22;8350;52.316;10.530;2024-01-27T07:05:00;2.60;99.90
16479;DHT22;8350;52.316;10.530;2024-01-27T07:07:32;2.70;99.90
16479;DHT22;8350;52.316;10.530;2024-01-27T07:10:06;2.70;99.90
16479;DHT22;8350;52.316;10.530;2024-01-27T07:12:34;2.70;99.90
16479;DHT22;8350;52.316;10.530;2024-01-27T07:15:02;2.70;99.90
16479;DHT22;8350;52.316;10.530;2024-01-27T07:17:29;2.70;99.90
16479;DHT22;8350;52.316;10.530;2024-01-27T07:19:56;2.70;99.90
16479;DHT22;8350;52.316;10.530;2024-01-27T07:22:23;2.70;99.90
16479;DHT22;8350;52.316;10.530;2024-01-27T07:24:50;2.70;99.90
16479;DHT22;8350;52.316;10.530;2024-01-27T07:27:19;2.70;99.90
16479;DHT22;8350;52.316;10.530;2024-01-27T07:29:45;2.80;99.90
16479;DHT22;8350;52.316;10.530;2024-01-27T07:32:12;2.80;99.90
16479;DHT22;8350;52.316;10.530;2024-01-27T07:34:40;2.80;99.90
16479;DHT22;8350;52.316;10.530;2024-01-27T07:37:09;2.70;99.90
16479;DHT22;8350;52.316;10.530;2024-01-27T07:39:36;2.80;99.90
16479;DHT22;8350;52.316;10.530;2024-01-27T07:42:03;2.80;99.90
16479;DHT22;8350;52.316;10.530;2024-01-27T07:44:32;2.90;99.90
16479;DHT22;8350;52.316;10.530;2024-01-27T07:46:59;2.90;99.90
16479;DHT22;8350;52.316;10.530;2024-01-27T07:49:26;2.90;99.90
16479;DHT22;8350;52.316;10.530;2024-01-27T07:51:54;3.00;99.90
16479;DHT22;8350;52.316;10.530;2024-01-27T07:54:20;3.00;99.90
16479;DHT22;8350;52.316;10.530;2024-01-27T07:56:48;3.00;99.90
16479;DHT22;8350;52.316;10.530;2024-01-27T07:59:15;3.00;99.90
16479;DHT22;8350;52.316;10.530;2024-01-27T08:01:43;3.10;99.90
16479;DHT22;8350;52.316;10.530;2024-01-27T08:04:10;3.10;99.90
16479;DHT22;8350;52.316;10.530;2024-01-27T08:06:47;3.20;99.90
16479;DHT22;8350;52.316;10.530;2024-01-27T08:09:14;3.30;99.90
16479;DHT22;8350;52.316;10.530;2024-01-27T08:11:41;3.30;99.90
16479;DHT22;8350;52.316;10.530;2024-01-27T08:14:08;3.30;99.90
16479;DHT22;8350;52.316;10.530;2024-01-27T08:16:35;3.30;99.90
16479;DHT22;8350;52.316;10.530;2024-01-27T08:19:03;3.30;99.90
16479;DHT22;8350;52.316;10.530;2024-01-27T08:21:30;3.40;99.90
16479;DHT22;8350;52.316;10.530;2024-01-27T08:23:57;3.40;99.90
16479;DHT22;8350;52.316;10.530;2024-01-27T08:26:24;3.40;99.90
16479;DHT22;8350;52.316;10.530;2024-01-27T08:28:51;3.50;99.90
16479;DHT22;8350;52.316;10.530;2024-01-27T08:31:20;3.60;99.90
16479;DHT22;8350;52.316;10.530;2024-01-27T08:33:47;3.60;99.90
16479;DHT22;8350;52.316;10.530;2024-01-27T08:36:24;3.70;99.90
16479;DHT22;8350;52.316;10.530;2024-01-27T08:38:57;3.70;99.90
16479;DHT22;8350;52.316;10.530;2024-01-27T08:41:24;3.80;99.90
16479;DHT22;8350;52.316;10.530;2024-01-27T08:43:51;3.80;99.90
16479;DHT22;8350;52.316;10.530;2024-01-27T08:46:18;3.90;99.90
16479;DHT22;8350;52.316;10.530;2024-01-27T08:48:47;4.00;99.90
16479;DHT22;8350;52.316;10.530;2024-01-27T08:51:16;4.00;99.90
16479;DHT22;8350;52.316;10.530;2024-01-27T08:53:43;4.10;99.90
16479;DHT22;8350;52.316;10.530;2024-01-27T08:56:14;4.20;99.90
16479;DHT22;8350;52.316;10.530;2024-01-27T08:58:43;4.20;99.90
16479;DHT22;8350;52.316;10.530;2024-01-27T09:01:11;4.30;99.90
16479;DHT22;8350;52.316;10.530;2024-01-27T09:03:40;4.30;99.90
16479;DHT22;8350;52.316;10.530;2024-01-27T09:06:07;4.40;99.90
16479;DHT22;8350;52.316;10.530;2024-01-27T09:08:36;4.40;99.90
16479;DHT22;8350;52.316;10.530;2024-01-27T09:11:03;4.40;99.90
16479;DHT22;8350;52.316;10.530;2024-01-27T09:13:30;4.50;99.90
16479;DHT22;8350;52.316;10.530;2024-01-27T09:15:58;4.50;99.90
16479;DHT22;8350;52.316;10.530;2024-01-27T09:18:25;4.50;99.90
16479;DHT22;8350;52.316;10.530;2024-01-27T09:20:51;4.60;99.90
16479;DHT22;8350;52.316;10.530;2024-01-27T09:23:21;4.60;99.90
16479;DHT22;8350;52.316;10.530;2024-01-27T09:25:50;4.70;99.90
16479;DHT22;8350;52.316;10.530;2024-01-27T09:28:17;4.70;99.90
16479;DHT22;8350;52.316;10.530;2024-01-27T09:30:44;4.70;99.90
16479;DHT22;8350;52.316;10.530;2024-01-27T09:33:11;4.80;99.90
16479;DHT22;8350;52.316;10.530;2024-01-27T09:35:38;4.80;99.90
16479;DHT22;8350;52.316;10.530;2024-01-27T09:38:05;4.80;99.90
16479;DHT22;8350;52.316;10.530;2024-01-27T09:40:34;4.80;99.90
16479;DHT22;8350;52.316;10.530;2024-01-27T09:43:03;4.90;99.90
16479;DHT22;8350;52.316;10.530;2024-01-27T09:45:31;4.90;99.90
16479;DHT22;8350;52.316;10.530;2024-01-27T09:48:00;5.00;99.90
16479;DHT22;8350;52.316;10.530;2024-01-27T09:50:27;5.00;99.90
16479;DHT22;8350;52.316;10.530;2024-01-27T09:52:54;5.10;99.90
16479;DHT22;8350;52.316;10.530;2024-01-27T09:55:21;5.10;99.90
16479;DHT22;8350;52.316;10.530;2024-01-27T09:57:49;5.10;99.90
16479;DHT22;8350;52.316;10.530;2024-01-27T10:00:20;5.20;99.90
16479;DHT22;8350;52.316;10.530;2024-01-27T10:05:58;5.40;99.90
16479;DHT22;8350;52.316;10.530;2024-01-27T10:08:25;5.40;99.90
16479;DHT22;8350;52.316;10.530;2024-01-27T10:10:54;5.40;99.90
16479;DHT22;8350;52.316;10.530;2024-01-27T10:13:22;5.50;99.90
16479;DHT22;8350;52.316;10.530;2024-01-27T10:16:01;5.50;99.90
16479;DHT22;8350;52.316;10.530;2024-01-27T10:18:29;5.60;99.90
16479;DHT22;8350;52.316;10.530;2024-01-27T10:20:56;5.70;99.90
16479;DHT22;8350;52.316;10.530;2024-01-27T10:23:23;5.70;99.90
16479;DHT22;8350;52.316;10.530;2024-01-27T10:25:51;5.80;99.90
16479;DHT22;8350;52.316;10.530;2024-01-27T10:28:21;5.80;99.90
16479;DHT22;8350;52.316;10.530;2024-01-27T10:30:49;5.90;99.90
16479;DHT22;8350;52.316;10.530;2024-01-27T10:33:17;5.90;99.90
16479;DHT22;8350;52.316;10.530;2024-01-27T10:35:44;6.00;99.90
16479;DHT22;8350;52.316;10.530;2024-01-27T10:38:11;6.00;99.90
16479;DHT22;8350;52.316;10.530;2024-01-27T10:40:38;6.00;99.90
16479;DHT22;8350;52.316;10.530;2024-01-27T10:43:08;6.10;99.90
16479;DHT22;8350;52.316;10.530;2024-01-27T10:45:36;6.20;99.90
16479;DHT22;8350;52.316;10.530;2024-01-27T10:48:05;6.20;99.90
16479;DHT22;8350;52.316;10.530;2024-01-27T10:50:37;6.20;99.90
16479;DHT22;8350;52.316;10.530;2024-01-27T10:53:08;6.30;99.90
16479;DHT22;8350;52.316;10.530;2024-01-27T10:55:37;6.30;99.90
16479;DHT22;8350;52.316;10.530;2024-01-27T10:58:04;6.40;99.90
16479;DHT22;8350;52.316;10.530;2024-01-27T11:00:37;6.30;99.90
16479;DHT22;8350;52.316;10.530;2024-01-27T11:03:06;6.30;99.90
16479;DHT22;8350;52.316;10.530;2024-01-27T11:05:39;6.40;99.90
16479;DHT22;8350;52.316;10.530;2024-01-27T11:08:08;6.40;99.90
16479;DHT22;8350;52.316;10.530;2024-01-27T11:10:41;6.40;99.90
16479;DHT22;8350;52.316;10.530;2024-01-27T11:13:08;6.40;99.90
16479;DHT22;8350;52.316;10.530;2024-01-27T11:15:35;6.50;99.90
16479;DHT22;8350;52.316;10.530;2024-01-27T11:18:04;6.50;99.90
16479;DHT22;8350;52.316;10.530;2024-01-27T11:20:34;6.50;99.90
16479;DHT22;8350;52.316;10.530;2024-01-27T11:23:11;6.60;99.90
16479;DHT22;8350;52.316;10.530;2024-01-27T11:25:39;6.60;99.90
16479;DHT22;8350;52.316;10.530;2024-01-27T11:28:14;6.60;99.90
16479;DHT22;8350;52.316;10.530;2024-01-27T11:30:46;6.70;99.90
16479;DHT22;8350;52.316;10.530;2024-01-27T11:33:13;6.80;99.90
16479;DHT22;8350;52.316;10.530;2024-01-27T11:35:40;6.90;99.90
16479;DHT22;8350;52.316;10.530;2024-01-27T11:38:07;6.90;99.90
16479;DHT22;8350;52.316;10.530;2024-01-27T11:40:47;6.90;99.90
16479;DHT22;8350;52.316;10.530;2024-01-27T11:43:15;6.90;99.90
16479;DHT22;8350;52.316;10.530;2024-01-27T11:45:42;6.90;99.90
16479;DHT22;8350;52.316;10.530;2024-01-27T11:48:09;6.90;99.90
16479;DHT22;8350;52.316;10.530;2024-01-27T11:50:36;7.00;99.90
16479;DHT22;8350;52.316;10.530;2024-01-27T11:53:04;7.00;99.90
16479;DHT22;8350;52.316;10.530;2024-01-27T11:55:35;7.10;99.90
16479;DHT22;8350;52.316;10.530;2024-01-27T11:58:04;7.20;99.90
16479;DHT22;8350;52.316;10.530;2024-01-27T12:00:32;7.20;99.90
16479;DHT22;8350;52.316;10.530;2024-01-27T12:02:59;7.30;99.90
16479;DHT22;8350;52.316;10.530;2024-01-27T12:05:26;7.30;99.90
16479;DHT22;8350;52.316;10.530;2024-01-27T12:07:53;7.20;99.90
16479;DHT22;8350;52.316;10.530;2024-01-27T12:10:20;7.30;99.90
16479;DHT22;8350;52.316;10.530;2024-01-27T12:12:47;7.30;99.90
16479;DHT22;8350;52.316;10.530;2024-01-27T12:15:16;7.40;99.90
16479;DHT22;8350;52.316;10.530;2024-01-27T12:17:50;7.40;99.90
16479;DHT22;8350;52.316;10.530;2024-01-27T12:20:17;7.40;99.90
16479;DHT22;8350;52.316;10.530;2024-01-27T12:22:44;7.50;99.90
16479;DHT22;8350;52.316;10.530;2024-01-27T12:25:15;7.50;99.90
16479;DHT22;8350;52.316;10.530;2024-01-27T12:27:46;7.50;99.90
16479;DHT22;8350;52.316;10.530;2024-01-27T12:30:15;7.60;99.90
16479;DHT22;8350;52.316;10.530;2024-01-27T12:32:42;7.70;99.90
16479;DHT22;8350;52.316;10.530;2024-01-27T12:35:09;7.70;99.90
16479;DHT22;8350;52.316;10.530;2024-01-27T12:37:38;7.70;99.90
16479;DHT22;8350;52.316;10.530;2024-01-27T12:40:17;7.60;99.90
16479;DHT22;8350;52.316;10.530;2024-01-27T12:42:44;7.70;99.90
16479;DHT22;8350;52.316;10.530;2024-01-27T12:45:17;7.70;99.90
16479;DHT22;8350;52.316;10.530;2024-01-27T12:47:44;7.70;99.90
16479;DHT22;8350;52.316;10.530;2024-01-27T12:50:11;7.80;99.90
16479;DHT22;8350;52.316;10.530;2024-01-27T12:52:41;7.80;99.90
16479;DHT22;8350;52.316;10.530;2024-01-27T12:55:08;7.80;99.90
16479;DHT22;8350;52.316;10.530;2024-01-27T12:57:35;7.80;99.90
16479;DHT22;8350;52.316;10.530;2024-01-27T13:00:06;7.80;99.90
16479;DHT22;8350;52.316;10.530;2024-01-27T13:02:39;7.90;99.90
16479;DHT22;8350;52.316;10.530;2024-01-27T13:05:09;8.00;99.90
16479;DHT22;8350;52.316;10.530;2024-01-27T13:07:36;8.00;99.90
16479;DHT22;8350;52.316;10.530;2024-01-27T13:10:03;8.00;99.90
16479;DHT22;8350;52.316;10.530;2024-01-27T13:12:31;8.10;99.90
16479;DHT22;8350;52.316;10.530;2024-01-27T13:15:00;8.00;99.90
16479;DHT22;8350;52.316;10.530;2024-01-27T13:17:27;8.10;99.90
16479;DHT22;8350;52.316;10.530;2024-01-27T13:19:56;8.10;99.90
16479;DHT22;8350;52.316;10.530;2024-01-27T13:22:23;8.10;99.90
16479;DHT22;8350;52.316;10.530;2024-01-27T13:24:50;8.10;99.90
16479;DHT22;8350;52.316;10.530;2024-01-27T13:27:20;8.10;99.90
16479;DHT22;8350;52.316;10.530;2024-01-27T13:29:47;8.10;99.90
16479;DHT22;8350;52.316;10.530;2024-01-27T13:32:16;8.10;99.90
16479;DHT22;8350;52.316;10.530;2024-01-27T13:34:43;8.00;99.90
16479;DHT22;8350;52.316;10.530;2024-01-27T13:37:11;8.10;99.90
16479;DHT22;8350;52.316;10.530;2024-01-27T13:39:41;8.10;99.90
16479;DHT22;8350;52.316;10.530;2024-01-27T13:42:08;8.00;99.90
16479;DHT22;8350;52.316;10.530;2024-01-27T13:44:35;8.00;99.90
16479;DHT22;8350;52.316;10.530;2024-01-27T13:47:02;8.00;99.90
16479;DHT22;8350;52.316;10.530;2024-01-27T13:49:30;8.10;99.90
16479;DHT22;8350;52.316;10.530;2024-01-27T13:51:57;8.10;99.90
16479;DHT22;8350;52.316;10.530;2024-01-27T13:54:26;8.20;99.90
16479;DHT22;8350;52.316;10.530;2024-01-27T13:56:53;8.20;99.90
16479;DHT22;8350;52.316;10.530;2024-01-27T13:59:20;8.20;99.90
16479;DHT22;8350;52.316;10.530;2024-01-27T14:01:47;8.10;99.90
16479;DHT22;8350;52.316;10.530;2024-01-27T14:04:14;8.10;99.90
16479;DHT22;8350;52.316;10.530;2024-01-27T14:06:41;8.10;99.90
16479;DHT22;8350;52.316;10.530;2024-01-27T14:09:08;8.10;99.90
16479;DHT22;8350;52.316;10.530;2024-01-27T14:11:38;8.20;99.90
16479;DHT22;8350;52.316;10.530;2024-01-27T14:14:26;8.20;99.90
16479;DHT22;8350;52.316;10.530;2024-01-27T14:16:53;8.20;99.90
16479;DHT22;8350;52.316;10.530;2024-01-27T14:19:20;8.20;99.90
16479;DHT22;8350;52.316;10.530;2024-01-27T14:21:47;8.10;99.90
16479;DHT22;8350;52.316;10.530;2024-01-27T14:24:14;8.10;99.90
16479;DHT22;8350;52.316;10.530;2024-01-27T14:26:44;8.10;99.90
16479;DHT22;8350;52.316;10.530;2024-01-27T14:29:11;8.10;99.90
16479;DHT22;8350;52.316;10.530;2024-01-27T14:31:38;8.00;99.90
16479;DHT22;8350;52.316;10.530;2024-01-27T14:34:05;8.00;99.90
16479;DHT22;8350;52.316;10.530;2024-01-27T14:36:32;8.00;99.90
16479;DHT22;8350;52.316;10.530;2024-01-27T14:38:59;7.90;99.90
16479;DHT22;8350;52.316;10.530;2024-01-27T14:41:25;7.90;99.90
16479;DHT22;8350;52.316;10.530;2024-01-27T14:43:54;7.80;99.90
16479;DHT22;8350;52.316;10.530;2024-01-27T14:46:22;7.80;99.90
16479;DHT22;8350;52.316;10.530;2024-01-27T14:48:49;7.80;99.90
16479;DHT22;8350;52.316;10.530;2024-01-27T14:51:16;7.70;99.90
16479;DHT22;8350;52.316;10.530;2024-01-27T14:53:43;7.70;99.90
16479;DHT22;8350;52.316;10.530;2024-01-27T14:56:10;7.70;99.90
16479;DHT22;8350;52.316;10.530;2024-01-27T14:58:39;7.60;99.90
16479;DHT22;8350;52.316;10.530;2024-01-27T15:01:07;7.60;99.90
16479;DHT22;8350;52.316;10.530;2024-01-27T15:03:33;7.60;99.90
16479;DHT22;8350;52.316;10.530;2024-01-27T15:06:01;7.50;99.90
16479;DHT22;8350;52.316;10.530;2024-01-27T15:08:28;7.50;99.90
16479;DHT22;8350;52.316;10.530;2024-01-27T15:10:55;7.40;99.90
16479;DHT22;8350;52.316;10.530;2024-01-27T15:13:26;7.40;99.90
16479;DHT22;8350;52.316;10.530;2024-01-27T15:15:53;7.30;99.90
16479;DHT22;8350;52.316;10.530;2024-01-27T15:18:21;7.30;99.90
16479;DHT22;8350;52.316;10.530;2024-01-27T15:20:49;7.20;99.90
16479;DHT22;8350;52.316;10.530;2024-01-27T15:23:15;7.10;99.90
16479;DHT22;8350;52.316;10.530;2024-01-27T15:25:49;7.00;99.90
16479;DHT22;8350;52.316;10.530;2024-01-27T15:28:15;7.00;99.90
16479;DHT22;8350;52.316;10.530;2024-01-27T15:30:42;7.00;99.90
16479;DHT22;8350;52.316;10.530;2024-01-27T15:33:12;6.90;99.90
16479;DHT22;8350;52.316;10.530;2024-01-27T15:35:40;6.80;99.90
16479;DHT22;8350;52.316;10.530;2024-01-27T15:38:08;6.80;99.90
16479;DHT22;8350;52.316;10.530;2024-01-27T15:40:37;6.80;99.90
16479;DHT22;8350;52.316;10.530;2024-01-27T15:43:04;6.70;99.90
16479;DHT22;8350;52.316;10.530;2024-01-27T15:45:31;6.70;99.90
16479;DHT22;8350;52.316;10.530;2024-01-27T15:47:58;6.60;99.90
16479;DHT22;8350;52.316;10.530;2024-01-27T15:50:25;6.50;99.90
16479;DHT22;8350;52.316;10.530;2024-01-27T15:52:55;6.40;99.90
16479;DHT22;8350;52.316;10.530;2024-01-27T15:55:24;6.40;99.90
16479;DHT22;8350;52.316;10.530;2024-01-27T15:57:53;6.30;99.90
16479;DHT22;8350;52.316;10.530;2024-01-27T16:00:20;6.20;99.90
16479;DHT22;8350;52.316;10.530;2024-01-27T16:02:47;6.10;99.90
16479;DHT22;8350;52.316;10.530;2024-01-27T16:05:14;6.00;99.90
16479;DHT22;8350;52.316;10.530;2024-01-27T16:07:41;5.90;99.90
16479;DHT22;8350;52.316;10.530;2024-01-27T16:10:10;5.80;99.90
16479;DHT22;8350;52.316;10.530;2024-01-27T16:12:41;5.80;99.90
16479;DHT22;8350;52.316;10.530;2024-01-27T16:15:11;5.70;99.90
16479;DHT22;8350;52.316;10.530;2024-01-27T16:17:38;5.60;99.90
16479;DHT22;8350;52.316;10.530;2024-01-27T16:20:06;5.60;99.90
16479;DHT22;8350;52.316;10.530;2024-01-27T16:22:32;5.50;99.90
16479;DHT22;8350;52.316;10.530;2024-01-27T16:24:59;5.50;99.90
16479;DHT22;8350;52.316;10.530;2024-01-27T16:27:27;5.40;99.90
16479;DHT22;8350;52.316;10.530;2024-01-27T16:29:54;5.40;99.90
16479;DHT22;8350;52.316;10.530;2024-01-27T16:32:22;5.30;99.90
16479;DHT22;8350;52.316;10.530;2024-01-27T16:34:49;5.30;99.90
16479;DHT22;8350;52.316;10.530;2024-01-27T16:37:16;5.20;99.90
16479;DHT22;8350;52.316;10.530;2024-01-27T16:39:46;5.20;99.90
16479;DHT22;8350;52.316;10.530;2024-01-27T16:42:16;5.20;99.90
16479;DHT22;8350;52.316;10.530;2024-01-27T16:44:45;5.10;99.90
16479;DHT22;8350;52.316;10.530;2024-01-27T16:47:13;5.00;99.90
16479;DHT22;8350;52.316;10.530;2024-01-27T16:49:42;4.90;99.90
16479;DHT22;8350;52.316;10.530;2024-01-27T16:52:09;4.70;99.90
16479;DHT22;8350;52.316;10.530;2024-01-27T16:54:36;4.60;99.90
16479;DHT22;8350;52.316;10.530;2024-01-27T16:57:03;4.60;99.90
16479;DHT22;8350;52.316;10.530;2024-01-27T16:59:31;4.50;99.90
16479;DHT22;8350;52.316;10.530;2024-01-27T17:02:00;4.40;99.90
16479;DHT22;8350;52.316;10.530;2024-01-27T17:04:28;4.40;99.90
16479;DHT22;8350;52.316;10.530;2024-01-27T17:06:55;4.40;99.90
16479;DHT22;8350;52.316;10.530;2024-01-27T17:09:22;4.30;99.90
16479;DHT22;8350;52.316;10.530;2024-01-27T17:11:49;4.30;99.90
16479;DHT22;8350;52.316;10.530;2024-01-27T17:14:16;4.30;99.90
16479;DHT22;8350;52.316;10.530;2024-01-27T17:16:43;4.20;99.90
16479;DHT22;8350;52.316;10.530;2024-01-27T17:19:11;4.20;99.90
16479;DHT22;8350;52.316;10.530;2024-01-27T17:21:39;4.10;99.90
16479;DHT22;8350;52.316;10.530;2024-01-27T17:24:06;4.00;99.90
16479;DHT22;8350;52.316;10.530;2024-01-27T17:26:33;4.00;99.90
16479;DHT22;8350;52.316;10.530;2024-01-27T17:28:59;4.00;99.90
16479;DHT22;8350;52.316;10.530;2024-01-27T17:31:26;3.90;99.90
16479;DHT22;8350;52.316;10.530;2024-01-27T17:33:53;3.90;99.90
16479;DHT22;8350;52.316;10.530;2024-01-27T17:36:23;3.90;99.90
16479;DHT22;8350;52.316;10.530;2024-01-27T17:38:50;3.90;99.90
16479;DHT22;8350;52.316;10.530;2024-01-27T17:41:38;3.80;99.90
16479;DHT22;8350;52.316;10.530;2024-01-27T17:44:07;3.90;99.90
16479;DHT22;8350;52.316;10.530;2024-01-27T17:46:40;3.80;99.90
16479;DHT22;8350;52.316;10.530;2024-01-27T17:49:11;3.90;99.90
16479;DHT22;8350;52.316;10.530;2024-01-27T17:51:39;3.80;99.90
16479;DHT22;8350;52.316;10.530;2024-01-27T17:54:06;3.70;99.90
16479;DHT22;8350;52.316;10.530;2024-01-27T17:56:36;3.60;99.90
16479;DHT22;8350;52.316;10.530;2024-01-27T17:59:05;3.60;99.90
16479;DHT22;8350;52.316;10.530;2024-01-27T18:01:31;3.60;99.90
16479;DHT22;8350;52.316;10.530;2024-01-27T18:03:58;3.50;99.90
16479;DHT22;8350;52.316;10.530;2024-01-27T18:06:25;3.50;99.90